Time;durP1;ratioP1;P1;durP2;ratioP2;P2;SDS_P1;SDS_P2;PMS_P1;PMS_P2;Temp;Humidity;BMP_temperature;BMP_pressure;BME280_temperature;BME280_humidity;BME280_pressure;Samples;Min_cycle;Max_cycle;Signal;HPM_P1;HPM_P2
2023/11/24 00:00:39;;;;;;;13.00;1.55;;;7.40;99.90;;;;;;15249286;23;20544;-80
2023/11/24 00:06:41;;;;;;;4.90;1.15;;;7.30;99.90;;;;;;15243163;23;20030;-81
2023/11/24 00:12:44;;;;;;;10.40;1.60;;;7.30;99.90;;;;;;15248391;23;20033;-81
2023/11/24 00:18:46;;;;;;;6.80;1.60;;;7.30;99.90;;;;;;15249530;23;20348;-81
2023/11/24 00:24:51;;;;;;;10.82;1.50;;;7.20;99.90;;;;;;15246952;23;20041;-81
2023/11/24 00:30:54;;;;;;;6.22;1.20;;;7.20;99.90;;;;;;15244886;23;20064;-81
2023/11/24 00:36:58;;;;;;;8.98;1.60;;;7.10;99.90;;;;;;15243213;23;20077;-81
2023/11/24 00:43:01;;;;;;;8.60;1.50;;;7.10;99.90;;;;;;15245793;23;20029;-82
2023/11/24 00:49:03;;;;;;;9.70;2.13;;;7.00;99.90;;;;;;15252214;23;20025;-81
2023/11/24 00:55:05;;;;;;;7.07;1.48;;;7.10;99.90;;;;;;15250009;23;20021;-81
2023/11/24 01:01:09;;;;;;;6.90;1.33;;;7.10;99.90;;;;;;15241851;23;20125;-83
2023/11/24 01:07:11;;;;;;;6.78;1.20;;;6.90;99.90;;;;;;15247740;23;20030;-81
2023/11/24 01:13:13;;;;;;;9.20;1.40;;;6.90;99.90;;;;;;15249205;23;20026;-85
2023/11/24 01:19:15;;;;;;;7.65;1.40;;;6.90;99.90;;;;;;15248456;23;20451;-82
2023/11/24 01:25:17;;;;;;;3.45;1.50;;;6.90;99.90;;;;;;15248661;23;20049;-82
2023/11/24 01:31:19;;;;;;;8.88;1.50;;;6.80;99.90;;;;;;15248282;23;20032;-83
2023/11/24 01:37:22;;;;;;;7.70;1.60;;;6.70;99.90;;;;;;15244941;23;20025;-83
2023/11/24 01:43:24;;;;;;;7.35;1.63;;;6.70;99.90;;;;;;15246729;23;20049;-88
2023/11/24 01:49:28;;;;;;;7.93;1.33;;;6.60;99.90;;;;;;15246876;23;20021;-83
2023/11/24 01:55:30;;;;;;;10.75;1.58;;;6.60;99.90;;;;;;15240343;23;20363;-82
2023/11/24 02:01:34;;;;;;;8.75;2.47;;;6.60;99.90;;;;;;15252762;23;20029;-82
2023/11/24 02:07:37;;;;;;;5.33;1.23;;;6.50;99.90;;;;;;15258024;22;20439;-82
2023/11/24 02:13:39;;;;;;;7.20;1.20;;;6.40;99.90;;;;;;15252726;23;20036;-84
2023/11/24 02:27:07;;;;;;;6.53;1.27;;;6.40;99.90;;;;;;15248419;23;20351;-81
2023/11/24 02:33:09;;;;;;;11.90;2.10;;;6.30;99.90;;;;;;15251219;23;20099;-83
2023/11/24 02:39:12;;;;;;;5.72;1.27;;;6.20;99.90;;;;;;15239663;22;20276;-84
2023/11/24 02:45:14;;;;;;;4.13;1.08;;;6.10;99.90;;;;;;15244900;23;20046;-80
2023/11/24 02:51:18;;;;;;;5.88;1.20;;;6.00;99.90;;;;;;15246090;23;20021;-80
2023/11/24 02:57:20;;;;;;;6.35;1.20;;;5.90;99.90;;;;;;15234737;23;20029;-81
2023/11/24 03:03:23;;;;;;;10.15;1.52;;;5.80;99.90;;;;;;15220569;23;20030;-81
2023/11/24 03:09:25;;;;;;;5.45;1.50;;;5.90;99.90;;;;;;15227528;23;20021;-82
2023/11/24 03:15:28;;;;;;;5.88;1.05;;;5.80;99.90;;;;;;15230773;23;20032;-79
2023/11/24 03:21:31;;;;;;;9.93;1.50;;;5.90;99.90;;;;;;15229159;23;20044;-81
2023/11/24 03:27:33;;;;;;;8.40;1.52;;;5.80;99.90;;;;;;15227753;23;20376;-80
2023/11/24 03:33:35;;;;;;;10.73;1.42;;;5.80;99.90;;;;;;15230582;23;20491;-82
2023/11/24 03:39:38;;;;;;;9.85;1.30;;;5.80;99.90;;;;;;15227960;23;20025;-82
2023/11/24 03:45:40;;;;;;;7.60;1.60;;;5.80;99.90;;;;;;15232332;23;20467;-81
2023/11/24 03:51:43;;;;;;;15.80;1.52;;;5.90;99.90;;;;;;15224866;23;20401;-81
2023/11/24 03:57:46;;;;;;;8.38;1.27;;;5.90;99.90;;;;;;15224899;23;20682;-81
2023/11/24 04:03:48;;;;;;;6.25;1.48;;;5.80;99.90;;;;;;15227890;23;20029;-86
2023/11/24 04:09:50;;;;;;;6.82;1.17;;;5.70;99.90;;;;;;15227553;23;20028;-79
2023/11/24 04:15:52;;;;;;;8.40;1.17;;;5.70;99.90;;;;;;15238954;23;20128;-80
2023/11/24 04:21:55;;;;;;;6.82;1.10;;;5.80;99.90;;;;;;15236238;23;20029;-80
2023/11/24 04:27:57;;;;;;;6.32;1.42;;;5.80;99.90;;;;;;15231483;23;20029;-80
2023/11/24 04:34:00;;;;;;;8.07;1.25;;;5.70;99.90;;;;;;15228989;23;20096;-82
2023/11/24 04:40:03;;;;;;;8.13;1.33;;;5.70;99.90;;;;;;15227621;23;20391;-81
2023/11/24 04:46:08;;;;;;;6.10;1.80;;;5.80;99.90;;;;;;15235066;23;20037;-81
2023/11/24 04:52:10;;;;;;;6.60;1.23;;;5.60;99.90;;;;;;15232449;23;20026;-80
2023/11/24 04:58:12;;;;;;;4.13;1.20;;;5.60;99.90;;;;;;15227563;23;20075;-80
2023/11/24 05:04:14;;;;;;;10.38;1.65;;;5.50;99.90;;;;;;15226535;23;20363;-81
2023/11/24 05:10:17;;;;;;;6.97;1.73;;;5.40;99.90;;;;;;15237607;23;20320;-80
2023/11/24 05:16:18;;;;;;;11.00;1.75;;;5.30;99.90;;;;;;15225955;23;20452;-82
2023/11/24 05:22:21;;;;;;;9.68;1.52;;;5.30;99.90;;;;;;15238691;23;20044;-82
2023/11/24 05:28:23;;;;;;;6.72;1.20;;;5.20;99.90;;;;;;15232989;23;20028;-82
2023/11/24 05:34:25;;;;;;;9.23;1.58;;;5.20;99.90;;;;;;15231982;23;20029;-82
2023/11/24 05:40:28;;;;;;;5.50;1.35;;;5.40;99.90;;;;;;15235051;23;20164;-83
2023/11/24 05:46:30;;;;;;;8.25;1.70;;;5.40;99.90;;;;;;15231733;23;20343;-83
2023/11/24 05:52:36;;;;;;;4.53;1.27;;;5.50;99.90;;;;;;15228466;23;20032;-81
2023/11/24 05:58:39;;;;;;;12.38;1.73;;;5.40;99.90;;;;;;15226135;23;20036;-80
2023/11/24 06:04:40;;;;;;;7.72;1.50;;;5.40;99.90;;;;;;15227071;23;20061;-81
2023/11/24 06:10:43;;;;;;;8.30;2.28;;;5.40;99.90;;;;;;15233646;23;20025;-80
2023/11/24 06:16:45;;;;;;;4.40;1.17;;;5.50;99.90;;;;;;15225918;23;20029;-83
2023/11/24 06:22:47;;;;;;;5.53;0.95;;;5.50;99.90;;;;;;15233914;23;20363;-83
2023/11/24 06:28:49;;;;;;;6.03;1.30;;;5.60;99.90;;;;;;15235485;23;20029;-81
2023/11/24 06:34:51;;;;;;;4.47;1.25;;;5.40;99.90;;;;;;15230459;23;20053;-82
2023/11/24 06:40:53;;;;;;;4.30;0.93;;;5.30;99.90;;;;;;15234369;23;20510;-81
2023/11/24 06:46:55;;;;;;;3.30;1.10;;;5.20;99.90;;;;;;15225776;23;20044;-81
2023/11/24 06:52:57;;;;;;;3.65;0.93;;;5.20;99.90;;;;;;15239200;23;20026;-87
2023/11/24 06:58:58;;;;;;;5.25;1.30;;;5.20;99.90;;;;;;15222238;23;20399;-82
2023/11/24 07:05:00;;;;;;;6.55;0.95;;;5.30;99.90;;;;;;15232452;23;20025;-83
2023/11/24 07:11:04;;;;;;;4.78;1.20;;;5.30;99.90;;;;;;15234540;23;20017;-83
2023/11/24 07:17:06;;;;;;;7.15;1.38;;;5.20;99.90;;;;;;15240496;23;20017;-84
2023/11/24 07:23:08;;;;;;;6.20;1.48;;;5.20;99.90;;;;;;15234618;23;20021;-83
2023/11/24 07:29:10;;;;;;;5.57;1.20;;;5.20;99.90;;;;;;15239473;23;20045;-86
2023/11/24 07:35:13;;;;;;;6.63;1.70;;;5.20;99.90;;;;;;15242431;23;20032;-83
2023/11/24 07:41:16;;;;;;;7.00;1.45;;;5.00;99.90;;;;;;15232810;23;20025;-83
2023/11/24 07:47:18;;;;;;;5.82;1.67;;;5.00;99.90;;;;;;15238351;23;20025;-82
2023/11/24 07:53:20;;;;;;;5.15;1.45;;;5.10;99.90;;;;;;15241704;23;20025;-83
2023/11/24 07:59:25;;;;;;;2.70;1.27;;;5.00;99.90;;;;;;15230910;23;20032;-83
2023/11/24 08:05:27;;;;;;;2.25;1.30;;;4.80;99.90;;;;;;15233585;23;20383;-86
2023/11/24 08:11:33;;;;;;;1.92;1.30;;;4.80;99.90;;;;;;15234974;23;20025;-81
2023/11/24 08:17:35;;;;;;;1.70;1.30;;;4.50;99.90;;;;;;15239968;23;20030;-81
2023/11/24 08:23:37;;;;;;;1.23;1.10;;;4.30;99.90;;;;;;15239279;23;20043;-82
2023/11/24 08:29:39;;;;;;;1.90;1.00;;;4.30;99.90;;;;;;15229229;23;20466;-82
2023/11/24 08:35:42;;;;;;;2.75;1.20;;;4.40;99.90;;;;;;15240153;23;20435;-82
2023/11/24 08:41:50;;;;;;;3.28;0.98;;;4.30;99.90;;;;;;15235776;23;20036;-81
2023/11/24 08:47:51;;;;;;;2.88;1.45;;;4.50;99.90;;;;;;15238537;23;20026;-82
2023/11/24 08:53:54;;;;;;;1.55;1.10;;;4.40;99.90;;;;;;15233958;23;20025;-82
2023/11/24 08:59:56;;;;;;;1.88;1.20;;;4.50;99.90;;;;;;15230433;23;20336;-81
2023/11/24 09:06:00;;;;;;;3.38;1.55;;;4.60;99.90;;;;;;15230807;23;20034;-81
2023/11/24 09:12:05;;;;;;;2.50;1.50;;;4.50;99.90;;;;;;15237670;23;20026;-81
2023/11/24 09:18:07;;;;;;;;;;;4.60;99.90;;;;;;15234197;23;20030;-86
2023/11/24 09:24:11;;;;;;;6.30;1.88;;;4.70;99.90;;;;;;15231752;23;19921;-83
2023/11/24 09:30:13;;;;;;;4.43;1.48;;;4.70;99.90;;;;;;15241149;23;20021;-82
2023/11/24 09:36:15;;;;;;;2.40;1.30;;;4.80;99.90;;;;;;15237183;23;20033;-83
2023/11/24 09:42:17;;;;;;;3.28;1.42;;;4.70;99.90;;;;;;15239294;23;20017;-84
2023/11/24 09:48:22;;;;;;;;;;;4.80;99.90;;;;;;15237704;23;20107;-85
2023/11/24 09:54:26;;;;;;;2.70;1.30;;;4.80;99.90;;;;;;15239081;23;20293;-83
2023/11/24 10:00:28;;;;;;;4.78;1.58;;;4.70;99.90;;;;;;15240225;23;20048;-83
2023/11/24 10:06:32;;;;;;;3.70;1.20;;;4.60;99.90;;;;;;15227887;23;20029;-83
2023/11/24 10:12:37;;;;;;;1.67;1.10;;;4.60;99.90;;;;;;15237254;23;20028;-83
2023/11/24 10:18:39;;;;;;;4.78;1.05;;;4.90;99.90;;;;;;15238300;23;20032;-81
2023/11/24 10:24:41;;;;;;;3.38;1.00;;;5.10;99.90;;;;;;15227302;23;20033;-81
2023/11/24 10:30:44;;;;;;;4.10;1.20;;;5.20;99.90;;;;;;15310909;23;20037;-81
2023/11/24 10:36:47;;;;;;;3.42;1.30;;;5.30;99.90;;;;;;15303985;23;20454;-81
2023/11/24 10:42:53;;;;;;;7.30;1.02;;;5.50;99.90;;;;;;15309150;23;20010;-83
2023/11/24 10:49:44;;;;;;;5.07;1.15;;;5.30;99.90;;;;;;15298843;23;20044;-81
2023/11/24 10:55:48;;;;;;;4.72;1.08;;;5.10;99.90;;;;;;15303154;23;20032;-81
2023/11/24 11:01:51;;;;;;;6.15;2.22;;;5.20;99.90;;;;;;15294132;23;20010;-82
2023/11/24 11:08:17;;;;;;;1.70;0.75;;;5.00;99.90;;;;;;15298297;23;20013;-83
2023/11/24 11:14:21;;;;;;;3.75;1.10;;;5.00;99.90;;;;;;15304822;23;20010;-82
2023/11/24 11:20:30;;;;;;;3.38;0.90;;;4.90;99.90;;;;;;15306440;23;20014;-81
2023/11/24 11:26:51;;;;;;;2.83;0.85;;;4.80;99.90;;;;;;15271283;23;20033;-83
2023/11/24 11:33:03;;;;;;;2.45;0.80;;;5.10;99.90;;;;;;15234902;23;20422;-83
2023/11/24 11:39:06;;;;;;;2.45;0.98;;;5.00;99.90;;;;;;15237463;23;20343;-81
2023/11/24 11:45:12;;;;;;;4.72;1.00;;;5.00;99.90;;;;;;15236440;23;20447;-83
2023/11/24 11:51:17;;;;;;;4.80;1.23;;;5.00;99.90;;;;;;15239267;23;20359;-84
2023/11/24 11:57:23;;;;;;;4.20;0.98;;;5.10;99.90;;;;;;15242424;23;20455;-83
2023/11/24 12:03:27;;;;;;;7.07;1.63;;;5.10;99.90;;;;;;15230608;23;20033;-83
2023/11/24 12:09:29;;;;;;;7.18;1.35;;;5.00;99.90;;;;;;15236071;23;20096;-84
2023/11/24 12:15:31;;;;;;;6.28;1.40;;;5.10;99.90;;;;;;15238204;23;20453;-83
2023/11/24 12:21:38;;;;;;;5.25;1.13;;;5.30;99.90;;;;;;15238295;23;20115;-82
2023/11/24 12:27:43;;;;;;;5.97;1.33;;;5.30;99.90;;;;;;15244264;23;20028;-82
2023/11/24 12:33:51;;;;;;;6.55;1.42;;;5.00;99.90;;;;;;15243177;23;20025;-83
2023/11/24 12:39:54;;;;;;;4.70;1.65;;;4.90;99.90;;;;;;15239689;23;20037;-83
2023/11/24 12:45:57;;;;;;;2.13;1.33;;;4.80;99.90;;;;;;15243661;23;20382;-83
2023/11/24 12:51:59;;;;;;;3.60;1.52;;;4.70;99.90;;;;;;15238841;23;20021;-83
2023/11/24 12:58:02;;;;;;;4.00;1.33;;;4.70;99.90;;;;;;15235533;23;20071;-82
2023/11/24 13:04:08;;;;;;;3.53;1.17;;;4.70;99.90;;;;;;15254521;23;20096;-81
2023/11/24 13:10:15;;;;;;;3.10;1.35;;;4.70;99.90;;;;;;15259322;23;20030;-82
2023/11/24 13:16:18;;;;;;;2.25;1.35;;;4.70;99.90;;;;;;15257936;23;20518;-80
2023/11/24 13:22:21;;;;;;;2.85;1.00;;;4.60;99.90;;;;;;15254078;22;20033;-82
2023/11/24 13:28:23;;;;;;;4.70;0.97;;;4.70;99.90;;;;;;15249691;23;20021;-83
2023/11/24 13:34:26;;;;;;;3.28;1.05;;;4.70;99.90;;;;;;15251521;23;20486;-83
2023/11/24 13:40:30;;;;;;;4.20;1.40;;;4.60;99.90;;;;;;15250417;23;20030;-83
2023/11/24 13:46:33;;;;;;;2.28;1.00;;;4.60;99.90;;;;;;15251057;23;20040;-83
2023/11/24 13:52:35;;;;;;;3.30;1.83;;;4.20;99.90;;;;;;15246598;22;20060;-84
2023/11/24 13:58:38;;;;;;;3.40;1.35;;;4.20;99.90;;;;;;15250375;23;20037;-84
2023/11/24 14:04:40;;;;;;;1.45;1.00;;;4.00;99.90;;;;;;15248264;23;20083;-82
2023/11/24 14:10:42;;;;;;;2.40;0.80;;;3.80;99.90;;;;;;15252266;23;20053;-81
2023/11/24 14:16:44;;;;;;;5.15;1.10;;;3.70;99.90;;;;;;15246588;23;20030;-83
2023/11/24 14:22:48;;;;;;;1.13;0.80;;;3.50;99.90;;;;;;15248448;23;20073;-82
2023/11/24 14:28:50;;;;;;;3.03;1.00;;;3.40;99.90;;;;;;15250202;22;20096;-84
2023/11/24 14:34:52;;;;;;;1.65;0.93;;;3.50;99.90;;;;;;15240874;23;20022;-84
2023/11/24 14:40:54;;;;;;;1.20;0.70;;;3.60;99.90;;;;;;15248038;23;20498;-82
2023/11/24 14:46:56;;;;;;;1.75;1.02;;;3.60;99.90;;;;;;15251407;23;20456;-82
2023/11/24 14:52:58;;;;;;;3.25;1.27;;;3.60;99.90;;;;;;15252294;23;20021;-82
2023/11/24 14:59:00;;;;;;;3.30;1.33;;;3.70;99.90;;;;;;15243572;23;20033;-83
2023/11/24 15:05:03;;;;;;;3.63;1.40;;;3.80;99.90;;;;;;15250291;23;20033;-82
2023/11/24 15:11:09;;;;;;;7.13;1.40;;;3.80;99.90;;;;;;15245194;23;20032;-83
2023/11/24 15:17:15;;;;;;;10.60;1.60;;;4.00;99.90;;;;;;15251074;23;20490;-83
2023/11/24 15:23:18;;;;;;;3.33;1.35;;;3.90;99.90;;;;;;15248692;22;20032;-82
2023/11/24 15:29:20;;;;;;;5.70;1.90;;;3.60;99.90;;;;;;15255946;23;20467;-83
2023/11/24 15:35:22;;;;;;;7.78;1.40;;;3.60;99.90;;;;;;15240019;23;20032;-85
2023/11/24 15:41:32;;;;;;;5.68;1.33;;;3.60;99.90;;;;;;15246529;23;20026;-84
2023/11/24 15:47:34;;;;;;;5.95;1.48;;;3.80;99.90;;;;;;15254679;23;20025;-83
2023/11/24 15:53:40;;;;;;;5.88;1.80;;;3.80;99.90;;;;;;15245265;23;20021;-82
2023/11/24 15:59:45;;;;;;;9.17;1.50;;;3.70;99.90;;;;;;15254129;23;20025;-84
2023/11/24 16:05:51;;;;;;;4.38;1.90;;;3.70;99.90;;;;;;15260705;23;20453;-83
2023/11/24 16:12:00;;;;;;;5.25;1.52;;;3.60;99.90;;;;;;15257964;23;20031;-82
2023/11/24 16:18:02;;;;;;;6.35;1.77;;;3.60;99.90;;;;;;15252404;23;20021;-84
2023/11/24 16:24:06;;;;;;;8.30;1.75;;;3.60;99.90;;;;;;15253453;23;20067;-81
2023/11/24 16:30:09;;;;;;;3.53;1.60;;;3.60;99.90;;;;;;15250348;23;20022;-82
2023/11/24 16:36:16;;;;;;;6.07;1.35;;;3.60;99.90;;;;;;15218963;23;20017;-85
2023/11/24 16:42:20;;;;;;;6.15;1.52;;;3.60;99.90;;;;;;15245314;23;20034;-84
2023/11/24 16:48:23;;;;;;;4.03;1.77;;;3.60;99.90;;;;;;15241067;23;20091;-85
2023/11/24 16:54:26;;;;;;;4.68;1.35;;;3.70;99.90;;;;;;15243502;23;20021;-85
2023/11/24 17:00:28;;;;;;;3.60;1.35;;;3.60;99.90;;;;;;15249731;23;20025;-84
2023/11/24 17:06:30;;;;;;;3.67;1.42;;;3.60;99.90;;;;;;15246793;23;20037;-85
2023/11/24 17:12:32;;;;;;;3.20;1.58;;;3.60;99.90;;;;;;15240569;23;20018;-88
2023/11/24 17:18:37;;;;;;;5.18;1.63;;;3.40;99.90;;;;;;15245420;23;20467;-84
2023/11/24 17:24:39;;;;;;;;;;;3.40;99.90;;;;;;15246337;23;20029;-85
2023/11/24 17:30:41;;;;;;;6.13;1.88;;;3.30;99.90;;;;;;15247201;22;19923;-85
2023/11/24 17:36:44;;;;;;;2.92;1.50;;;3.30;99.90;;;;;;15236804;23;20045;-83
2023/11/24 17:42:46;;;;;;;4.00;1.52;;;3.40;99.90;;;;;;15248327;23;20033;-85
2023/11/24 17:48:47;;;;;;;6.07;1.63;;;3.50;99.90;;;;;;15245548;23;20029;-82
2023/11/24 17:54:50;;;;;;;4.30;2.00;;;3.50;99.90;;;;;;15245951;23;20524;-82
2023/11/24 18:00:52;;;;;;;6.05;1.83;;;3.50;99.90;;;;;;15251883;23;20069;-87
2023/11/24 18:06:54;;;;;;;8.38;2.20;;;3.50;99.90;;;;;;15249326;23;20041;-82
2023/11/24 18:12:57;;;;;;;6.55;2.08;;;3.50;99.90;;;;;;15251026;23;20480;-84
2023/11/24 18:19:00;;;;;;;5.43;2.22;;;3.40;99.90;;;;;;15247560;23;20033;-87
2023/11/24 18:25:05;;;;;;;4.05;2.17;;;3.40;99.90;;;;;;15249350;23;20030;-86
2023/11/24 18:31:07;;;;;;;8.90;2.40;;;3.40;99.90;;;;;;15252157;22;20033;-83
2023/11/24 18:37:11;;;;;;;6.13;2.80;;;3.30;99.90;;;;;;15245833;23;20025;-83
2023/11/24 18:43:13;;;;;;;4.30;2.85;;;3.20;99.90;;;;;;15250672;22;20033;-84
2023/11/24 18:49:30;;;;;;;7.38;2.83;;;3.10;99.90;;;;;;15252242;23;20028;-83
2023/11/24 18:55:33;;;;;;;2.75;2.35;;;3.00;99.90;;;;;;15248576;23;20122;-87
2023/11/24 19:01:35;;;;;;;5.10;2.20;;;3.00;99.90;;;;;;15260030;23;20079;-84
2023/11/24 19:07:37;;;;;;;2.85;2.22;;;2.80;99.90;;;;;;15254557;23;20017;-82
2023/11/24 19:13:41;;;;;;;3.13;2.28;;;2.80;99.90;;;;;;15255917;23;20025;-84
2023/11/24 19:19:47;;;;;;;2.33;2.13;;;2.80;99.90;;;;;;15257632;23;20036;-85
2023/11/24 19:25:49;;;;;;;2.30;2.10;;;2.60;99.90;;;;;;15252686;23;20025;-82
2023/11/24 19:31:51;;;;;;;2.60;2.03;;;2.60;99.90;;;;;;15257832;23;20056;-82
2023/11/24 19:37:53;;;;;;;2.47;1.70;;;2.40;99.90;;;;;;15254788;23;20063;-83
2023/11/24 19:43:55;;;;;;;3.45;1.48;;;2.50;99.90;;;;;;15257141;23;20033;-83
2023/11/24 19:49:57;;;;;;;2.70;1.48;;;2.30;99.90;;;;;;15259760;23;20021;-83
2023/11/24 19:55:59;;;;;;;3.00;1.30;;;2.30;99.90;;;;;;15256989;23;20025;-81
2023/11/24 20:02:04;;;;;;;2.50;1.50;;;2.10;99.90;;;;;;15250861;23;20045;-82
2023/11/24 20:08:06;;;;;;;;;;;2.10;99.90;;;;;;15254205;23;20025;-82
2023/11/24 20:14:08;;;;;;;1.88;1.50;;;2.00;99.90;;;;;;15246333;23;19923;-82
2023/11/24 20:20:13;;;;;;;3.15;1.80;;;2.00;99.90;;;;;;15253730;23;20025;-81
2023/11/24 20:26:15;;;;;;;;;;;1.90;99.90;;;;;;15241170;23;20030;-82
2023/11/24 20:32:17;;;;;;;1.40;1.27;;;2.00;99.90;;;;;;15242295;23;19916;-81
2023/11/24 20:38:20;;;;;;;4.25;1.52;;;2.10;99.90;;;;;;15253205;23;20026;-81
2023/11/24 20:44:22;;;;;;;2.55;1.85;;;2.00;99.90;;;;;;15255593;23;20026;-82
2023/11/24 20:50:24;;;;;;;5.25;1.30;;;2.10;99.90;;;;;;15253410;23;20017;-81
2023/11/24 20:56:28;;;;;;;5.88;1.67;;;2.20;99.90;;;;;;15258070;23;20026;-82
2023/11/24 21:02:30;;;;;;;3.42;1.50;;;2.20;99.90;;;;;;15262902;23;20751;-82
2023/11/24 21:08:32;;;;;;;3.00;1.40;;;2.30;99.90;;;;;;15266905;23;20041;-85
2023/11/24 21:14:33;;;;;;;4.32;2.05;;;2.10;99.90;;;;;;15270824;23;20332;-82
2023/11/24 21:20:35;;;;;;;6.43;1.60;;;2.10;99.90;;;;;;15240658;23;20480;-82
2023/11/24 21:26:37;;;;;;;3.95;1.90;;;2.10;99.90;;;;;;15250350;23;20018;-81
2023/11/24 21:32:39;;;;;;;2.45;1.20;;;2.20;99.90;;;;;;15257696;23;20021;-82
2023/11/24 21:38:42;;;;;;;3.38;1.55;;;2.10;99.90;;;;;;15274760;23;20010;-82
2023/11/24 21:44:44;;;;;;;7.20;1.83;;;2.10;99.90;;;;;;15314206;23;20013;-82
2023/11/24 21:50:46;;;;;;;5.32;1.40;;;2.00;99.90;;;;;;15315804;23;20013;-83
2023/11/24 21:56:48;;;;;;;3.15;1.50;;;2.00;99.90;;;;;;15318542;23;20045;-83
2023/11/24 22:02:50;;;;;;;6.95;1.20;;;1.90;99.90;;;;;;15261767;23;20029;-82
2023/11/24 22:08:52;;;;;;;3.00;1.20;;;2.00;99.90;;;;;;15256071;23;20024;-82
2023/11/24 22:14:55;;;;;;;4.13;1.77;;;1.90;99.90;;;;;;15253939;23;20104;-83
2023/11/24 22:20:57;;;;;;;3.20;1.20;;;1.80;99.90;;;;;;15258794;23;20025;-83
2023/11/24 22:27:01;;;;;;;5.82;1.70;;;1.80;99.90;;;;;;15285749;23;20083;-84
2023/11/24 22:33:03;;;;;;;4.57;1.77;;;2.00;99.90;;;;;;15296308;23;20641;-85
2023/11/24 22:39:05;;;;;;;8.90;2.00;;;1.80;99.90;;;;;;15262804;23;20227;-84
2023/11/24 22:45:07;;;;;;;2.70;1.42;;;2.00;99.90;;;;;;15256518;23;20462;-83
2023/11/24 22:51:26;;;;;;;5.68;1.33;;;1.90;99.90;;;;;;15256022;23;20022;-83
2023/11/24 22:57:28;;;;;;;5.57;1.60;;;1.90;99.90;;;;;;15247375;23;20025;-86
2023/11/24 23:03:30;;;;;;;4.88;1.40;;;2.00;99.90;;;;;;15250862;23;20057;-84
2023/11/24 23:09:35;;;;;;;5.22;1.40;;;1.90;99.90;;;;;;15251333;23;20022;-84
2023/11/24 23:15:37;;;;;;;7.28;1.52;;;1.90;99.90;;;;;;15251809;23;20021;-85
2023/11/24 23:21:40;;;;;;;5.00;1.10;;;1.80;99.90;;;;;;15250637;22;20329;-85
2023/11/24 23:27:43;;;;;;;6.82;1.35;;;1.80;99.90;;;;;;15244387;23;20021;-84
2023/11/24 23:33:48;;;;;;;6.13;1.45;;;1.90;99.90;;;;;;15244779;23;20033;-84
2023/11/24 23:39:50;;;;;;;4.72;1.30;;;1.90;99.90;;;;;;15248318;23;20025;-83
2023/11/24 23:45:52;;;;;;;4.63;1.30;;;1.90;99.90;;;;;;15257377;23;20029;-82
2023/11/24 23:51:54;;;;;;;3.88;1.50;;;1.80;99.90;;;;;;15248631;23;20026;-81
2023/11/24 23:57:58;;;;;;;5.82;1.65;;;1.80;99.90;;;;;;15247616;23;20033;-82
